Airfield :







YOU CAN JOIN US ON...

 
LOGIN :

Register | Disclaimer

   EN    FR    IT 

 









Legend :    VFR   Marginal VFR   IFR   Intensive IFR   Very Intensive IFR
Visi :
Ceiling :
>= 8 km
>= 3000ft
5 to 8 km
1000 to 3000 ft
1500m to 5 km
500 to 1000 ft
800 to 1500m
200 to 500 ft
< 800m
< 200 ft
Symbols :   Thunderstorms  Fog  Heavy snow  Heavy precipitations  Wind > 20 kt






- Airport Elevation : 54 ft
- IATA code : BEL


SBBE - Val de Cans Int.

CURRENT METAR :
  • 261200Z 07008KT 9999 SCT020 29/24 Q1011

EXPIRED METARs :
  • 261100Z 07006KT 9999 FEW010 28/24 Q1010
  • 261000Z 06003KT CAVOK 26/24 Q1010

TAF TAF SBBE
Valid from the 26 at 12:00 until the 27 at 12:00 UTC


260900Z 2612/2712 07005KT CAVOK TX31/2617Z TN24/2707Z
BECMG 2615/2617 36010KT BKN030 FEW040TCU
PROB30 2618/2620 TS SCT030 FEW040CB
BECMG 2621/2623 05005KT FEW030
BECMG 2709/2711 08005KT FEW015 RMK PHD
SBAZ FIR / South America



MET'MAP, your aeronautical weather chart ! - Copyright ORBIFLY December 2007 - Disclaimer

ORBIFLY MET'MAP TEAM :

Programming & Development : Alexandra Zaïnal
Concept & original design : Baudouin d'Aumeries
Assistance for programming : Marc-Olivier Méhu
Technical & hardware support : Manuel Goepfert

Contact : metmap@orbifly.com




SOURCES & CREDITS :

   NOAA